Makkovik Airport

Airport
ICAO code: 
CYFT
IATA Code: 
YMN
Summary
ICAO Region: 
NAM
Territory: 
Location: 
Makkovik, Labrador
Serving: 
Makkovik
Elevation: 
228 ft
Coordinates: 
Aerial View: 
55° 4' 37.344" N, 59° 11' 17.592" W
Metar
Observation
CYFT 272100Z 09004KT 020V120 1/2SM FG VV003 01/01 A2935 RMK FG8 LAST STFD OBS/NEXT 281000Z SLP946
Station
Makkovik Airport
Date/Time
2021-11-27 21:00:00
Lowest cloud amount
n/a
Temperature
°C
Dew point
0°C
Weather condition
n/a

Description

Newfoundland and Labrador is home to a variety of climates and weather. One of the main reasons for this diversity is the geography of the province. The island portion of the province spans 5 degrees of latitude, which is comparable to that of the Great Lakes. The province has been divided into six climate types, but in broader terms Newfoundland has a cool summer subtype of a humid continental climate, which is greatly influenced by the sea since no part of the island is more than 100 km from the ocean. Northern Labrador is classified as a polar tundra climate, southern Labrador has a subarctic climate.

Climatology

Subarctic climate (Köppen climate classification Dfb) - long, usually very cold winters, and short, cool to mild summers.

Runways

Designator Length Width Surface Rops
10/28 762 23 GRAVEL No/No
Airport map: 
Aerial View: 

SKYbrary Partners:

Safety knowledge contributed by: